createdAt,value
2018-02-25T00:01:54.669Z,11.43
2018-02-25T00:04:22.090Z,10.43
2018-02-25T00:06:49.515Z,10.68
2018-02-25T00:09:16.931Z,10.55
2018-02-25T00:11:44.357Z,10.52
2018-02-25T00:14:11.780Z,11.88
2018-02-25T00:16:39.194Z,11.43
2018-02-25T00:19:06.626Z,12.00
2018-02-25T00:21:34.043Z,11.00
2018-02-25T00:24:01.462Z,11.00
2018-02-25T00:26:28.890Z,10.57
2018-02-25T00:28:56.303Z,11.10
2018-02-25T00:31:23.730Z,11.32
2018-02-25T00:33:51.191Z,11.20
2018-02-25T00:36:18.626Z,10.77
2018-02-25T00:38:46.047Z,10.85
2018-02-25T00:41:13.481Z,12.07
2018-02-25T00:43:40.902Z,12.43
2018-02-25T00:46:08.328Z,11.98
2018-02-25T00:48:35.758Z,11.77
2018-02-25T00:51:03.180Z,11.90
2018-02-25T00:53:30.598Z,11.65
2018-02-25T00:55:58.051Z,13.02
2018-02-25T00:58:25.466Z,11.27
2018-02-25T01:00:52.883Z,11.82
2018-02-25T01:03:20.314Z,12.07
2018-02-25T01:05:47.737Z,12.82
2018-02-25T01:08:15.158Z,11.18
2018-02-25T01:10:42.587Z,11.45
2018-02-25T01:13:10.006Z,11.38
2018-02-25T01:15:37.422Z,12.07
2018-02-25T01:18:04.871Z,11.77
2018-02-25T01:20:32.293Z,11.63
2018-02-25T01:22:59.702Z,13.02
2018-02-25T01:25:27.133Z,12.65
2018-02-25T01:27:54.546Z,12.10
2018-02-25T01:30:21.971Z,12.43
2018-02-25T01:32:49.410Z,12.70
2018-02-25T01:35:16.833Z,12.07
2018-02-25T01:37:44.247Z,11.95
2018-02-25T01:40:11.683Z,12.00
2018-02-25T01:42:39.112Z,13.15
2018-02-25T01:45:06.529Z,12.50
2018-02-25T01:47:33.962Z,13.40
2018-02-25T01:50:01.374Z,12.00
2018-02-25T01:52:28.794Z,11.27
2018-02-25T01:54:56.222Z,12.25
2018-02-25T01:57:23.659Z,11.55
2018-02-25T01:59:51.076Z,11.98
2018-02-25T02:02:18.510Z,13.38
2018-02-25T02:04:45.928Z,13.02
2018-02-25T02:07:13.343Z,12.68
2018-02-25T02:09:40.770Z,12.77
2018-02-25T02:12:08.184Z,12.48
2018-02-25T02:14:35.597Z,12.00
2018-02-25T02:17:03.043Z,12.88
2018-02-25T02:19:30.449Z,12.95
2018-02-25T02:21:57.865Z,13.23
2018-02-25T02:24:25.318Z,12.52
2018-02-25T02:26:52.718Z,11.75
2018-02-25T02:29:20.140Z,12.37
2018-02-25T02:31:47.571Z,12.95
2018-02-25T02:34:14.990Z,12.63
2018-02-25T02:36:42.416Z,12.52
2018-02-25T02:39:10.166Z,12.07
2018-02-25T02:41:37.583Z,11.70
2018-02-25T02:44:05.032Z,12.45
2018-02-25T02:46:32.466Z,12.65
2018-02-25T02:48:59.882Z,12.13
2018-02-25T02:51:27.298Z,12.90
2018-02-25T02:53:54.725Z,13.07
2018-02-25T02:56:22.151Z,12.80
2018-02-25T02:58:49.570Z,13.23
2018-02-25T03:01:17.003Z,12.23
2018-02-25T03:03:44.419Z,11.57
2018-02-25T03:06:11.835Z,12.13
2018-02-25T03:08:39.274Z,12.65
2018-02-25T03:11:06.690Z,12.00
2018-02-25T03:13:34.110Z,12.52
2018-02-25T03:16:01.546Z,12.40
2018-02-25T03:18:28.962Z,11.82
2018-02-25T03:20:56.390Z,12.77
2018-02-25T03:23:23.834Z,12.70
2018-02-25T03:25:51.258Z,12.45
2018-02-25T03:28:18.677Z,11.80
2018-02-25T03:30:46.111Z,12.85
2018-02-25T03:33:13.532Z,11.98
2018-02-25T03:35:40.952Z,12.07
2018-02-25T03:38:08.379Z,13.25
2018-02-25T03:40:35.790Z,13.27
2018-02-25T03:43:03.201Z,12.57
2018-02-25T03:45:30.634Z,13.27
2018-02-25T03:47:58.047Z,11.70
2018-02-25T03:50:25.470Z,12.37
2018-02-25T03:52:52.905Z,12.50
2018-02-25T03:55:20.330Z,12.45
2018-02-25T03:57:47.738Z,12.50
2018-02-25T04:00:15.162Z,12.57
2018-02-25T04:02:42.582Z,12.13
2018-02-25T04:05:09.998Z,11.65
2018-02-25T04:07:37.438Z,13.00
2018-02-25T04:10:04.873Z,12.57
2018-02-25T04:12:32.279Z,13.80
2018-02-25T04:14:59.710Z,13.23
2018-02-25T04:17:27.126Z,12.23
2018-02-25T04:19:54.543Z,13.13
2018-02-25T04:22:21.979Z,13.02
2018-02-25T04:24:49.390Z,13.75
2018-02-25T04:27:17.330Z,13.15
2018-02-25T04:29:44.758Z,13.13
2018-02-25T04:32:12.180Z,13.27
2018-02-25T04:34:39.598Z,12.20
2018-02-25T04:37:07.034Z,12.95
2018-02-25T04:39:34.458Z,12.75
2018-02-25T04:42:01.882Z,12.15
2018-02-25T04:44:29.326Z,12.50
2018-02-25T04:46:56.750Z,14.00
2018-02-25T04:49:24.170Z,13.07
2018-02-25T04:51:51.594Z,12.35
2018-02-25T04:54:19.011Z,11.93
2018-02-25T04:56:46.441Z,12.68
2018-02-25T04:59:13.878Z,16.00
2018-02-25T05:01:41.291Z,14.93
2018-02-25T05:04:08.714Z,12.23
2018-02-25T05:06:36.141Z,13.30
2018-02-25T05:09:03.567Z,11.50
2018-02-25T05:11:30.994Z,13.65
2018-02-25T05:13:58.436Z,13.07
2018-02-25T05:16:25.866Z,12.77
2018-02-25T05:18:53.283Z,12.45
2018-02-25T05:21:20.715Z,13.43
2018-02-25T05:23:48.130Z,14.00
2018-02-25T05:26:15.541Z,14.60
2018-02-25T05:28:42.975Z,12.85
2018-02-25T05:31:10.450Z,14.57
2018-02-25T05:33:37.866Z,12.80
2018-02-25T05:36:05.294Z,12.20
2018-02-25T05:38:32.709Z,13.07
2018-02-25T05:41:00.126Z,13.25
2018-02-25T05:43:31.425Z,12.50
2018-02-25T05:45:58.842Z,12.80
2018-02-25T05:48:26.270Z,13.88
2018-02-25T05:50:53.697Z,12.70
2018-02-25T05:53:21.112Z,12.50
2018-02-25T05:55:48.534Z,12.18
2018-02-25T05:58:15.961Z,13.43
2018-02-25T06:00:43.368Z,13.45
2018-02-25T06:03:10.777Z,16.02
2018-02-25T06:05:38.218Z,12.90
2018-02-25T06:08:05.636Z,12.52
2018-02-25T06:10:33.059Z,12.20
2018-02-25T06:13:00.483Z,14.45
2018-02-25T06:15:27.897Z,12.55
2018-02-25T06:17:55.334Z,12.10
2018-02-25T06:20:22.766Z,12.15
2018-02-25T06:22:50.186Z,11.05
2018-02-25T06:25:17.640Z,11.95
2018-02-25T06:27:45.098Z,12.20
2018-02-25T06:30:20.330Z,14.77
2018-02-25T06:32:47.762Z,11.38
2018-02-25T06:35:15.191Z,14.25
2018-02-25T06:37:42.606Z,13.45
2018-02-25T06:40:13.175Z,12.07
2018-02-25T06:42:40.590Z,13.90
2018-02-25T06:45:08.006Z,13.57
2018-02-25T06:47:35.459Z,13.07
2018-02-25T06:50:02.886Z,12.88
2018-02-25T06:52:30.298Z,13.20
2018-02-25T06:54:57.734Z,12.60
2018-02-25T06:57:25.150Z,12.75
2018-02-25T06:59:52.566Z,12.77
2018-02-25T07:02:20.003Z,12.13
2018-02-25T07:04:47.422Z,13.18
2018-02-25T07:07:14.838Z,12.05
2018-02-25T07:09:42.273Z,11.88
2018-02-25T07:12:09.695Z,15.73
2018-02-25T07:14:37.120Z,12.70
2018-02-25T07:17:04.554Z,11.95
2018-02-25T07:19:31.967Z,14.45
2018-02-25T07:21:59.386Z,12.70
2018-02-25T07:24:26.821Z,11.80
2018-02-25T07:26:54.272Z,14.10
2018-02-25T07:29:21.658Z,12.02
2018-02-25T07:31:49.119Z,12.48
2018-02-25T07:34:16.539Z,12.10
2018-02-25T07:36:43.974Z,11.93
2018-02-25T07:39:11.426Z,14.57
2018-02-25T07:41:38.848Z,12.60
2018-02-25T07:44:06.267Z,13.43
2018-02-25T07:46:33.695Z,12.30
2018-02-25T07:49:01.161Z,11.98
2018-02-25T07:51:28.595Z,13.32
2018-02-25T07:53:56.046Z,12.45
2018-02-25T07:56:23.465Z,12.85
2018-02-25T07:58:50.897Z,13.90
2018-02-25T08:01:18.365Z,12.90
2018-02-25T08:04:02.237Z,12.60
2018-02-25T08:06:29.669Z,14.35
2018-02-25T08:08:57.094Z,13.98
2018-02-25T08:11:24.523Z,13.80
2018-02-25T08:13:51.965Z,16.02
2018-02-25T08:16:19.386Z,13.18
2018-02-25T08:18:46.808Z,13.13
2018-02-25T08:21:14.279Z,14.40
2018-02-25T08:23:41.663Z,13.48
2018-02-25T08:26:09.086Z,15.57
2018-02-25T08:28:36.519Z,17.90
2018-02-25T08:31:03.941Z,13.45
2018-02-25T08:33:31.366Z,13.68
2018-02-25T08:35:58.801Z,14.70
2018-02-25T08:38:26.230Z,13.30
2018-02-25T08:40:53.647Z,12.60
2018-02-25T08:43:21.082Z,12.93
2018-02-25T08:45:48.498Z,16.05
2018-02-25T08:48:15.938Z,13.77
2018-02-25T08:50:43.371Z,13.20
2018-02-25T08:53:10.810Z,13.40
2018-02-25T08:55:38.238Z,13.43
2018-02-25T08:58:05.678Z,12.15
2018-02-25T09:00:33.101Z,12.05
2018-02-25T09:03:00.523Z,12.40
2018-02-25T09:05:27.958Z,12.77
2018-02-25T09:07:55.382Z,12.10
2018-02-25T09:10:22.798Z,13.25
2018-02-25T09:12:50.259Z,13.05
2018-02-25T09:15:17.689Z,12.85
2018-02-25T09:17:45.114Z,12.73
2018-02-25T09:20:12.552Z,13.02
2018-02-25T09:22:39.975Z,13.30
2018-02-25T09:25:07.400Z,12.52
2018-02-25T09:27:34.874Z,12.40
2018-02-25T09:30:02.307Z,12.05
2018-02-25T09:32:29.778Z,13.00
2018-02-25T09:34:57.231Z,13.80
2018-02-25T09:37:24.623Z,13.70
2018-02-25T09:39:52.039Z,12.90
2018-02-25T09:42:19.466Z,11.90
2018-02-25T09:44:46.881Z,13.35
2018-02-25T09:47:14.298Z,14.45
2018-02-25T09:49:41.740Z,13.75
2018-02-25T09:52:09.162Z,12.33
2018-02-25T09:54:36.957Z,11.75
2018-02-25T09:57:04.382Z,12.25
2018-02-25T09:59:31.808Z,12.48
2018-02-25T10:01:59.281Z,12.07
2018-02-25T10:04:26.730Z,12.57
2018-02-25T10:06:54.154Z,12.02
2018-02-25T10:09:21.576Z,13.05
2018-02-25T10:11:49.078Z,11.48
2018-02-25T10:14:16.952Z,13.65
2018-02-25T10:16:44.390Z,12.05
2018-02-25T10:19:11.844Z,12.25
2018-02-25T10:21:39.268Z,11.43
2018-02-25T10:24:06.702Z,12.13
2018-02-25T10:26:34.147Z,12.77
2018-02-25T10:29:01.573Z,12.45
2018-02-25T10:31:28.999Z,12.80
2018-02-25T10:33:56.459Z,12.20
2018-02-25T10:36:23.887Z,12.05
2018-02-25T10:38:51.318Z,12.48
2018-02-25T10:41:18.756Z,13.27
2018-02-25T10:43:46.192Z,13.73
2018-02-25T10:46:13.619Z,12.60
2018-02-25T10:48:41.080Z,11.30
2018-02-25T10:51:08.622Z,11.13
2018-02-25T10:53:36.073Z,11.52
2018-02-25T10:56:03.554Z,11.02
2018-02-25T10:58:30.995Z,11.77
2018-02-25T11:01:04.104Z,11.90
2018-02-25T11:03:31.510Z,10.87
2018-02-25T11:05:58.927Z,10.80
2018-02-25T11:08:26.359Z,10.63
2018-02-25T11:10:53.775Z,11.80
2018-02-25T11:13:21.202Z,10.90
2018-02-25T11:15:48.626Z,10.77
2018-02-25T11:18:16.067Z,11.07
2018-02-25T11:20:43.513Z,10.90
2018-02-25T11:23:10.959Z,11.70
2018-02-25T11:25:38.445Z,11.60
2018-02-25T11:28:05.876Z,11.50
2018-02-25T11:30:33.307Z,11.90
2018-02-25T11:33:00.723Z,10.77
2018-02-25T11:35:28.130Z,11.23
2018-02-25T11:37:55.549Z,10.23
2018-02-25T11:40:22.961Z,11.03
2018-02-25T11:42:50.382Z,10.63
2018-02-25T11:45:17.806Z,10.47
2018-02-25T11:47:45.216Z,10.63
2018-02-25T11:50:12.621Z,10.67
2018-02-25T11:52:40.104Z,11.87
2018-02-25T11:55:07.488Z,11.23
2018-02-25T11:57:34.899Z,11.33
2018-02-25T12:00:02.331Z,10.90
2018-02-25T12:02:29.777Z,11.30
2018-02-25T12:04:57.212Z,11.33
2018-02-25T12:07:24.643Z,11.20
2018-02-25T12:09:52.071Z,12.85
2018-02-25T12:12:19.486Z,11.20
2018-02-25T12:14:46.930Z,11.03
2018-02-25T12:17:14.342Z,11.37
2018-02-25T12:19:41.776Z,11.20
2018-02-25T12:22:09.215Z,11.00
2018-02-25T12:24:36.649Z,12.10
2018-02-25T12:27:04.071Z,10.70
2018-02-25T12:29:31.540Z,11.03
2018-02-25T12:31:58.947Z,10.97
2018-02-25T12:34:26.367Z,10.67
2018-02-25T12:36:53.860Z,12.03
2018-02-25T12:39:21.293Z,11.55
2018-02-25T12:41:48.702Z,11.93
2018-02-25T12:44:16.135Z,11.93
2018-02-25T12:46:43.559Z,10.97
2018-02-25T12:49:10.997Z,12.30
2018-02-25T12:51:38.421Z,12.77
2018-02-25T12:54:05.834Z,13.00
2018-02-25T12:56:33.261Z,11.97
2018-02-25T12:59:00.698Z,12.73
2018-02-25T13:01:28.110Z,10.90
2018-02-25T13:03:55.527Z,11.83
2018-02-25T13:06:22.953Z,12.20
2018-02-25T13:08:50.754Z,11.85
2018-02-25T13:11:18.173Z,11.95
2018-02-25T13:13:45.603Z,11.30
2018-02-25T13:16:13.031Z,12.25
2018-02-25T13:18:40.450Z,12.37
2018-02-25T13:21:07.877Z,12.40
2018-02-25T13:23:35.282Z,11.30
2018-02-25T13:26:02.717Z,11.32
2018-02-25T13:28:30.153Z,11.87
2018-02-25T13:30:57.589Z,12.48
2018-02-25T13:33:25.009Z,11.67
2018-02-25T13:35:52.445Z,12.50
2018-02-25T13:38:19.871Z,12.70
2018-02-25T13:40:47.290Z,12.83
2018-02-25T13:43:14.721Z,12.63
2018-02-25T13:45:42.134Z,12.53
2018-02-25T13:48:09.549Z,12.80
2018-02-25T13:50:36.981Z,13.27
2018-02-25T13:53:04.407Z,11.80
2018-02-25T13:55:32.931Z,11.30
2018-02-25T13:58:00.354Z,11.53
2018-02-25T14:00:27.762Z,11.63
2018-02-25T14:02:55.182Z,12.43
2018-02-25T14:05:22.975Z,11.70
2018-02-25T14:07:50.394Z,12.30
2018-02-25T14:10:17.866Z,11.93
2018-02-25T14:12:45.323Z,12.27
2018-02-25T14:15:12.748Z,12.43
2018-02-25T14:17:40.166Z,12.13
2018-02-25T14:20:07.594Z,11.80
2018-02-25T14:22:35.028Z,12.07
2018-02-25T14:25:02.451Z,12.27
2018-02-25T14:27:29.896Z,13.65
2018-02-25T14:29:57.334Z,12.45
2018-02-25T14:32:24.776Z,12.50
2018-02-25T14:34:52.218Z,11.75
2018-02-25T14:37:19.665Z,11.73
2018-02-25T14:39:54.408Z,12.55
2018-02-25T14:42:21.822Z,11.98
2018-02-25T14:44:52.305Z,13.15
2018-02-25T14:47:19.757Z,12.70
2018-02-25T14:49:47.170Z,11.75
2018-02-25T14:52:14.669Z,10.82
2018-02-25T14:54:42.116Z,11.20
2018-02-25T14:57:09.534Z,12.73
2018-02-25T14:59:36.969Z,11.50
2018-02-25T15:02:04.417Z,12.25
2018-02-25T15:04:31.834Z,15.80
2018-02-25T15:06:59.257Z,11.63
2018-02-25T15:09:26.741Z,11.50
2018-02-25T15:11:54.147Z,11.55
2018-02-25T15:14:21.583Z,11.00
2018-02-25T15:16:49.018Z,11.82
2018-02-25T15:19:16.440Z,11.02
2018-02-25T15:21:43.868Z,10.75
2018-02-25T15:24:11.303Z,10.95
2018-02-25T15:26:38.726Z,11.10
2018-02-25T15:29:16.134Z,11.75
2018-02-25T15:31:43.590Z,10.93
2018-02-25T15:34:10.983Z,11.23
2018-02-25T15:36:38.414Z,11.80
2018-02-25T15:39:05.830Z,11.60
2018-02-25T15:41:33.255Z,11.30
2018-02-25T15:44:00.693Z,11.68
2018-02-25T15:46:28.118Z,12.05
2018-02-25T15:48:55.552Z,12.30
2018-02-25T15:51:23.006Z,11.73
2018-02-25T15:53:50.421Z,12.37
2018-02-25T15:56:17.858Z,13.10
2018-02-25T15:58:45.295Z,11.32
2018-02-25T16:01:12.716Z,11.77
2018-02-25T16:03:40.135Z,11.15
2018-02-25T16:06:07.568Z,11.98
2018-02-25T16:08:35.018Z,11.88
2018-02-25T16:11:02.436Z,11.38
2018-02-25T16:13:29.886Z,12.10
2018-02-25T16:15:58.164Z,11.38
2018-02-25T16:18:25.581Z,11.90
2018-02-25T16:20:53.016Z,12.18
2018-02-25T16:23:20.439Z,11.82
2018-02-25T16:25:47.898Z,11.10
2018-02-25T16:28:15.321Z,11.02
2018-02-25T16:30:42.741Z,12.55
2018-02-25T16:33:10.150Z,11.68
2018-02-25T16:35:37.591Z,12.85
2018-02-25T16:38:05.006Z,12.32
2018-02-25T16:40:32.425Z,11.12
2018-02-25T16:42:59.910Z,12.23
2018-02-25T16:45:27.378Z,11.07
2018-02-25T16:47:54.794Z,11.25
2018-02-25T16:50:22.229Z,11.12
2018-02-25T16:52:49.650Z,11.25
2018-02-25T16:55:17.067Z,11.02
2018-02-25T16:57:44.542Z,10.90
2018-02-25T17:00:11.969Z,10.45
2018-02-25T17:02:39.373Z,10.65
2018-02-25T17:05:06.811Z,10.75
2018-02-25T17:07:34.230Z,10.93
2018-02-25T17:10:01.655Z,10.80
2018-02-25T17:12:29.109Z,11.32
2018-02-25T17:14:56.514Z,9.45
2018-02-25T17:17:23.917Z,10.45
2018-02-25T17:19:51.349Z,10.00
2018-02-25T17:22:18.771Z,10.70
2018-02-25T17:24:46.210Z,9.70
2018-02-25T17:27:14.629Z,10.48
2018-02-25T17:29:42.050Z,11.12
2018-02-25T17:32:09.458Z,10.38
2018-02-25T17:34:36.886Z,10.60
2018-02-25T17:37:04.303Z,11.88
2018-02-25T17:39:31.722Z,12.07
2018-02-25T17:41:59.174Z,11.82
2018-02-25T17:44:26.586Z,10.63
2018-02-25T17:46:54.012Z,13.23
2018-02-25T17:49:21.505Z,12.15
2018-02-25T17:51:48.945Z,11.15
2018-02-25T17:54:16.460Z,10.73
2018-02-25T17:56:43.902Z,11.95
2018-02-25T17:59:11.326Z,10.10
2018-02-25T18:01:38.751Z,11.38
2018-02-25T18:04:06.216Z,11.50
2018-02-25T18:06:33.627Z,9.90
2018-02-25T18:09:01.288Z,11.65
2018-02-25T18:11:28.868Z,11.50
2018-02-25T18:13:56.322Z,9.80
2018-02-25T18:16:23.746Z,11.20
2018-02-25T18:18:51.176Z,10.30
2018-02-25T18:21:18.630Z,11.27
2018-02-25T18:23:46.054Z,11.65
2018-02-25T18:26:13.514Z,11.35
2018-02-25T18:28:40.947Z,11.02
2018-02-25T18:31:08.365Z,10.80
2018-02-25T18:33:35.789Z,9.77
2018-02-25T18:36:03.219Z,10.30
2018-02-25T18:38:30.673Z,10.60
2018-02-25T18:40:58.112Z,11.35
2018-02-25T18:43:25.699Z,11.45
2018-02-25T18:46:12.002Z,10.75
2018-02-25T18:48:39.451Z,12.07
2018-02-25T18:51:06.867Z,11.63
2018-02-25T18:53:34.291Z,10.48
2018-02-25T18:56:01.786Z,10.27
2018-02-25T18:58:29.206Z,11.38
2018-02-25T19:00:57.688Z,10.50
2018-02-25T19:03:25.120Z,10.90
2018-02-25T19:05:52.536Z,9.82
2018-02-25T19:08:20.034Z,10.55
2018-02-25T19:10:47.465Z,10.93
2018-02-25T19:13:14.906Z,11.70
2018-02-25T19:15:42.342Z,11.32
2018-02-25T19:18:09.822Z,11.00
2018-02-25T19:20:37.238Z,10.63
2018-02-25T19:23:04.670Z,11.45
2018-02-25T19:25:32.091Z,10.85
2018-02-25T19:27:59.515Z,11.10
2018-02-25T19:30:26.974Z,11.20
2018-02-25T19:32:54.395Z,10.65
2018-02-25T19:35:21.856Z,11.20
2018-02-25T19:37:54.850Z,11.32
2018-02-25T19:40:27.930Z,12.10
2018-02-25T19:42:56.161Z,11.00
2018-02-25T19:45:23.583Z,11.45
2018-02-25T19:47:50.998Z,11.50
2018-02-25T19:50:18.459Z,10.90
2018-02-25T19:52:45.874Z,10.85
2018-02-25T19:55:13.294Z,12.35
2018-02-25T19:57:40.725Z,12.15
2018-02-25T20:00:08.211Z,12.57
2018-02-25T20:02:35.630Z,10.75
2018-02-25T20:05:03.066Z,11.20
2018-02-25T20:07:30.504Z,11.25
2018-02-25T20:09:57.924Z,11.73
2018-02-25T20:12:25.374Z,12.57
2018-02-25T20:14:52.848Z,11.48
2018-02-25T20:17:20.258Z,11.50
2018-02-25T20:19:47.694Z,10.23
2018-02-25T20:22:15.115Z,11.07
2018-02-25T20:24:42.550Z,11.18
2018-02-25T20:27:09.982Z,12.45
2018-02-25T20:29:37.403Z,11.10
2018-02-25T20:32:04.823Z,10.85
2018-02-25T20:34:32.293Z,10.93
2018-02-25T20:36:59.715Z,11.55
2018-02-25T20:39:27.129Z,11.15
2018-02-25T20:41:54.564Z,10.70
2018-02-25T20:44:21.980Z,10.35
2018-02-25T20:46:49.386Z,10.77
2018-02-25T20:49:16.817Z,11.00
2018-02-25T20:51:44.241Z,10.68
2018-02-25T20:54:11.642Z,9.70
2018-02-25T20:56:39.142Z,10.68
2018-02-25T20:59:06.558Z,10.88
2018-02-25T21:01:33.976Z,11.12
2018-02-25T21:04:01.402Z,9.98
2018-02-25T21:06:28.817Z,10.43
2018-02-25T21:08:56.232Z,10.40
2018-02-25T21:11:23.658Z,11.38
2018-02-25T21:13:51.065Z,10.40
2018-02-25T21:16:18.482Z,10.13
2018-02-25T21:18:45.964Z,11.20
2018-02-25T21:21:13.373Z,10.52
2018-02-25T21:23:40.794Z,12.40
2018-02-25T21:26:08.231Z,11.15
2018-02-25T21:28:35.646Z,11.70
2018-02-25T21:31:03.070Z,10.90
2018-02-25T21:33:30.515Z,11.93
2018-02-25T21:35:57.929Z,11.73
2018-02-25T21:38:25.346Z,10.95
2018-02-25T21:40:52.806Z,11.73
2018-02-25T21:43:20.238Z,10.70
2018-02-25T21:45:47.650Z,11.80
2018-02-25T21:48:15.074Z,10.68
2018-02-25T21:50:42.491Z,11.02
2018-02-25T21:53:14.827Z,12.05
2018-02-25T21:55:47.747Z,11.07
2018-02-25T21:58:20.749Z,12.27
2018-02-25T22:00:53.846Z,11.55
2018-02-25T22:03:36.819Z,11.65
2018-02-25T22:06:04.243Z,12.10
2018-02-25T22:08:31.654Z,12.35
2018-02-25T22:10:59.088Z,12.18
2018-02-25T22:13:26.501Z,13.15
2018-02-25T22:15:53.922Z,13.43
2018-02-25T22:18:21.371Z,13.65
2018-02-25T22:20:48.789Z,11.52
2018-02-25T22:23:16.211Z,12.50
2018-02-25T22:25:43.692Z,12.57
2018-02-25T22:28:11.118Z,13.25
2018-02-25T22:30:38.554Z,13.75
2018-02-25T22:33:05.989Z,13.32
2018-02-25T22:35:33.407Z,13.10
2018-02-25T22:38:00.822Z,12.75
2018-02-25T22:40:28.265Z,14.23
2018-02-25T22:42:55.685Z,14.45
2018-02-25T22:45:23.101Z,13.98
2018-02-25T22:47:50.546Z,13.40
2018-02-25T22:50:17.964Z,14.32
2018-02-25T22:52:45.377Z,14.68
2018-02-25T22:55:12.810Z,14.73
2018-02-25T22:57:40.230Z,14.95
2018-02-25T23:00:07.662Z,15.55
2018-02-25T23:02:35.098Z,15.98
2018-02-25T23:05:02.524Z,15.80
2018-02-25T23:07:29.937Z,15.30
2018-02-25T23:09:57.388Z,16.30
2018-02-25T23:12:24.810Z,15.20
2018-02-25T23:14:52.227Z,16.17
2018-02-25T23:17:19.658Z,14.90
2018-02-25T23:19:47.082Z,15.75
2018-02-25T23:22:14.498Z,16.10
2018-02-25T23:24:41.937Z,16.83
2018-02-25T23:27:09.365Z,16.00
2018-02-25T23:29:36.779Z,16.33
2018-02-25T23:32:04.208Z,18.27
2018-02-25T23:34:31.621Z,16.17
2018-02-25T23:36:59.037Z,15.48
2018-02-25T23:39:26.470Z,18.02
2018-02-25T23:41:53.915Z,16.55
2018-02-25T23:44:21.334Z,16.98
2018-02-25T23:46:48.778Z,16.50
2018-02-25T23:49:16.199Z,17.87
2018-02-25T23:51:43.614Z,16.17
2018-02-25T23:54:11.043Z,16.98
2018-02-25T23:56:38.458Z,16.35
2018-02-25T23:59:05.882Z,16.33
